• Join FlightAware (Why Join?)
  • Login
  • US Flag 
02:05AM EDT


 

Airport Tracker/Info


-or-


 

Live Flight TrackerFlight Track Log ✈ UAL1259 ✈ 17-Apr-2013 ✈ KDCA - KORD

Flight Track Log - Related Links

Times and Time Zones

All times are in EDT time to prevent confusion due to time zone crossing. See the UAL1259 flight status page for this flight to view local times or setup timezone preferences in your user account.

Time Position Orientation Groundspeed Altitude Reporting Facility
EDT Latitude Longitude Course Direction KTS MPH feet Rate Location/Type
09:17AM 38.8667 -77.0500 270° West 174 200 1,100  Level Potomac TRACON
09:18AM 38.9167 -77.1000 322° Northwest 190 219 3,900 2,760 Climbing Potomac TRACON
09:19AM 38.9667 -77.1500 322° Northwest 250 288 6,700 3,060 Climbing Potomac TRACON
09:20AM 38.9039 -77.3821 288° West  Level FlightAware Approximate
09:20AM 38.9833 -77.2333 284° West 267 307 10,100  Level Potomac TRACON
09:21AM 38.9333 -77.4989 270° West  Level FlightAware Approximate
09:21AM 39.0167 -77.3333 293° West 323 372 12,500  Level Potomac TRACON
09:22AM 38.9333 -77.6246 270° West  Level FlightAware Approximate
09:22AM 39.0500 -77.4333 293° West 337 388 15,400  Level Potomac TRACON
09:24AM 39.0261 -77.7131 264° West 353 406 18,300 1,320 Climbing Washington Center
09:25AM 39.0089 -77.8542 261° West 365 420 20,000 840 Climbing Washington Center
09:26AM 38.9942 -77.9714 261° West 375 432 20,000  Level Washington Center
09:27AM 38.9725 -78.1147 259° West 375 432 20,000  Level Washington Center
09:28AM 38.9617 -78.2319 263° West 370 426 20,000 540 Level Washington Center
09:29AM 38.9644 -78.3789 271° West 370 426 21,100 1,260 Climbing Washington Center
09:30AM 38.9678 -78.5017 272° West 375 432 22,600 1,680 Climbing Washington Center
09:31AM 38.9783 -78.6703 275° West 411 473 24,500 2,100 Climbing Washington Center
09:32AM 38.9806 -78.8200 271° West 419 482 26,900 1,620 Climbing Washington Center
09:33AM 38.9808 -78.9669 270° West 417 480 27,800 540 Climbing Washington Center
09:34AM 38.9831 -79.1058 271° West 423 487 28,000 60 Climbing Washington Center
09:35AM 38.9928 -79.2639 275° West 434 499 28,000  Level Washington Center
09:36AM 38.9942 -79.4189 271° West 439 505 28,000  Level Washington Center
09:37AM 38.9972 -79.5822 271° West 439 505 28,000  Level Washington Center
09:38AM 39.0025 -79.7347 273° West 439 505 28,000  Level Washington Center
09:39AM 39.0033 -79.8897 270° West 439 505 28,000  Level Washington Center
09:41AM 39.0069 -80.2072 271° West 442 509 28,000  Level Indianapolis Center
09:42AM 39.0181 -80.3622 275° West 442 509 28,000  Level Indianapolis Center
09:43AM 39.0761 -80.5011 298° West 441 507 28,000  Level Indianapolis Center
09:45AM 39.1353 -80.6389 299° West 442 509 28,000  Level Indianapolis Center
09:46AM 39.1944 -80.7761 299° West 439 505 28,000  Level Indianapolis Center
09:47AM 39.2667 -80.9419 299° West 443 510 28,000  Level Indianapolis Center
09:48AM 39.3250 -81.0789 299° West 439 505 28,000  Level Indianapolis Center
09:49AM 39.3831 -81.2119 299° West 431 496 28,000  Level Indianapolis Center
09:50AM 39.4392 -81.3411 299° West 419 482 28,000  Level Indianapolis Center
09:51AM 39.4936 -81.4722 298° West 416 479 28,000  Level Indianapolis Center
09:52AM 39.5497 -81.6042 299° West 420 483 28,000  Level Indianapolis Center
09:53AM 39.6158 -81.7628 298° West 418 481 28,000  Level Indianapolis Center
09:54AM 39.6722 -81.8942 299° West 419 482 28,000 -60 Level Indianapolis Center
09:55AM 39.7267 -82.0267 298° West 420 483 27,900  Descending Indianapolis Center
09:56AM 39.7825 -82.1614 298° West 420 483 28,000  Climbing Indianapolis Center
09:57AM 39.8403 -82.2972 299° West 424 488 28,000  Level Indianapolis Center
09:58AM 39.8958 -82.4342 298° West 425 489 28,000 -60 Level Indianapolis Center
09:59AM 39.9608 -82.5911 298° West 421 484 27,900 -60 Descending Indianapolis Center
10:00AM 40.0158 -82.7267 298° West 420 483 27,900  Level Indianapolis Center
10:01AM 40.0708 -82.8614 298° West 419 482 28,000  Climbing Indianapolis Center
10:02AM 40.1258 -82.9989 298° West 424 488 27,900  Descending Indianapolis Center
10:03AM 40.1819 -83.1356 298° West 426 490 28,000  Climbing Indianapolis Center
10:04AM 40.2367 -83.2736 297° West 427 491 28,000 -60 Level Indianapolis Center
10:05AM 40.3011 -83.4328 298° West 425 489 27,900  Descending Indianapolis Center
10:06AM 40.3531 -83.5658 297° West 412 474 28,000  Climbing Indianapolis Center
10:07AM 40.4058 -83.6967 298° West 406 467 28,000  Level Indianapolis Center
10:08AM 40.4586 -83.8297 298° West 408 470 28,000  Level Indianapolis Center
10:09AM 40.5119 -83.9647 297° West 415 478 28,000  Level Indianapolis Center
10:10AM 40.5661 -84.1067 297° West 429 494 28,000  Level Indianapolis Center
10:11AM 40.6214 -84.2503 297° West 435 501 28,000  Level Indianapolis Center
10:12AM 40.6847 -84.4092 298° West 437 503 28,000  Level Chicago Center
10:14AM 40.7392 -84.5533 297° West 439 505 28,000  Level Chicago Center
10:15AM 40.7956 -84.6981 297° West 442 509 28,000  Level Chicago Center
10:16AM 40.8611 -84.8733 296° West 443 510 28,000  Level Chicago Center
10:17AM 40.9142 -85.0144 296° West 434 499 28,000 -360 Level Chicago Center
10:18AM 40.9675 -85.1547 297° West 429 494 27,300 -540 Descending Chicago Center
10:19AM 41.0400 -85.2783 308° West 430 495 27,000 -180 Descending Chicago Center
10:20AM 41.1172 -85.3986 310° West 428 493 27,000  Level Chicago Center
10:21AM 41.1886 -85.5092 311° West 407 468 27,000  Level Chicago Center
10:22AM 41.2494 -85.6094 309° West 366 421 27,000  Level Chicago Center
10:23AM 41.2600 -85.7289 277° West 341 392 27,000  Level Chicago Center
10:24AM 41.2675 -85.8528 275° West 287 330 27,000  Level Chicago Center
10:25AM 41.2753 -85.9517 276° West 271 312 27,000  Level Chicago Center
10:26AM 41.2828 -86.0519 276° West 271 312 27,000  Level Chicago Center
10:27AM 41.2433 -86.1319 237° Southwest 269 310 27,000  Level Chicago Center
10:28AM 41.1633 -86.1219 175° South 299 344 27,000  Level Chicago Center
10:29AM 41.1344 -85.9978 107° East 363 418 27,000  Level Chicago Center
10:30AM 41.1228 -85.8642 97° East 368 423 27,000  Level Chicago Center
10:31AM 41.1719 -85.7322 64° Northeast 368 423 27,000  Level Chicago Center
10:32AM 41.2486 -85.7656 342° North 311 358 27,000  Level Chicago Center
10:33AM 41.2694 -85.8633 286° West 283 326 27,000  Level Chicago Center
10:34AM 41.2758 -85.9636 275° West 274 315 27,000  Level Chicago Center
10:35AM 41.2825 -86.0650 275° West 274 315 27,000  Level Chicago Center
10:36AM 41.2331 -86.1394 229° Southwest 270 311 27,000  Level Chicago Center
10:37AM 41.1528 -86.1061 163° South 319 367 27,000  Level Chicago Center
10:38AM 41.1311 -85.9503 100° East 363 418 27,000  Level Chicago Center
10:39AM 41.1211 -85.8150 96° East 369 425 27,000 -540 Level Chicago Center
10:40AM 41.1872 -85.7306 44° Northeast 359 413 26,000 -1,080 Descending Chicago Center
10:41AM 41.2569 -85.7925 326° Northwest 330 380 24,900 -1,800 Descending Chicago Center
10:42AM 41.2664 -85.9019 277° West 306 352 22,400 -2,520 Descending Chicago Center
10:43AM 41.2769 -86.0189 277° West 315 362 19,800 -2,040 Descending Chicago Center
10:44AM 41.2856 -86.1519 275° West 352 405 18,300 -900 Descending Chicago Center
10:45AM 41.2975 -86.2872 277° West 367 422 18,000 -180 Descending Chicago Center
10:46AM 41.3089 -86.4483 275° West 365 420 18,000  Level Chicago Center
10:47AM 41.3181 -86.5811 275° West 363 418 18,000 -180 Level Chicago Center
10:48AM 41.3286 -86.7147 276° West 363 418 17,700 -540 Descending Chicago Center
10:49AM 41.3394 -86.8600 276° West 362 417 16,900 -1,320 Descending Chicago Center
10:51AM 41.3486 -86.9889 275° West 355 409 15,000 -2,280 Descending Chicago Center
10:52AM 41.3572 -87.1161 275° West 349 402 12,300 -1,980 Descending Chicago Center
10:53AM 41.3922 -87.2278 293° West 348 400 11,000 -1,020 Descending Chicago Center
10:53AM 41.4167 -87.2667 310° West 300 345 10,900  Descending Chicago TRACON
10:54AM 41.4500 -87.3667 294° West 281 323 11,000 60 Climbing Chicago TRACON
10:55AM 41.4783 -87.4056 314° West 286 329 11,000  Level Chicago Center
10:56AM 41.5286 -87.5122 302° West 285 328 11,000  Level Chicago Center
10:57AM 41.5703 -87.6006 302° West 285 328 11,000 -360 Level Chicago Center
10:58AM 41.6111 -87.6883 302° West 284 327 10,300 -720 Descending Chicago Center
10:58AM 41.6333 -87.7167 316° Northwest 276 318 10,100 -1,140 Descending Chicago TRACON
10:59AM 41.6667 -87.7833 304° West 304 350 9,100 -1,440 Descending Chicago TRACON
11:00AM 41.7167 -87.8833 304° West 287 330 7,400 -1,440 Descending Chicago TRACON
11:01AM 41.7353 -87.9517 290° West 291 335 6,300 -1,500 Descending Chicago Center
11:02AM 41.7664 -88.0633 291° West 286 329 4,500 -1,500 Descending Chicago Center
11:03AM 41.8333 -88.0425 13° North 273 314 3,300 -900 Descending Chicago Center
11:04AM 41.8806 -87.9853 42° Northeast 248 285 2,700 -600 Descending Chicago Center